createdAt,value
2022-12-03T00:00:35.833Z,30.50
2022-12-03T00:01:37.706Z,22.00
2022-12-03T00:02:40.884Z,21.02
2022-12-03T00:03:43.484Z,21.92
2022-12-03T00:04:46.503Z,21.77
2022-12-03T00:05:49.810Z,25.27
2022-12-03T00:06:52.791Z,24.92
2022-12-03T00:07:54.693Z,24.80
2022-12-03T00:08:57.771Z,24.23
2022-12-03T00:09:59.755Z,22.90
2022-12-03T00:11:02.716Z,23.02
2022-12-03T00:12:04.933Z,23.48
2022-12-03T00:13:07.815Z,24.88
2022-12-03T00:14:09.726Z,23.73
2022-12-03T00:15:12.711Z,29.15
2022-12-03T00:16:14.724Z,26.05
2022-12-03T00:17:18.015Z,24.90
2022-12-03T00:18:19.890Z,26.50
2022-12-03T00:19:22.777Z,27.52
2022-12-03T00:20:26.253Z,25.88
2022-12-03T00:21:29.545Z,26.27
2022-12-03T00:22:32.433Z,22.52
2022-12-03T00:23:38.639Z,23.63
2022-12-03T00:24:44.706Z,22.30
2022-12-03T00:25:47.641Z,28.33
2022-12-03T00:26:49.507Z,28.23
2022-12-03T00:27:52.447Z,29.50
2022-12-03T00:28:54.887Z,23.83
2022-12-03T00:29:57.768Z,27.35
2022-12-03T00:30:59.675Z,28.15
2022-12-03T00:32:02.679Z,23.45
2022-12-03T00:33:04.637Z,24.80
2022-12-03T00:34:07.514Z,26.30
2022-12-03T00:35:09.964Z,22.83
2022-12-03T00:36:12.798Z,22.30
2022-12-03T00:37:16.000Z,24.35
2022-12-03T00:38:18.950Z,24.38
2022-12-03T00:39:20.819Z,25.65
2022-12-03T00:40:23.670Z,23.75
2022-12-03T00:41:25.967Z,25.05
2022-12-03T00:42:30.068Z,22.98
2022-12-03T00:43:32.191Z,25.60
2022-12-03T00:44:35.166Z,25.00
2022-12-03T00:45:37.082Z,29.90
2022-12-03T00:46:39.997Z,25.17
2022-12-03T00:47:41.914Z,24.63
2022-12-03T00:48:44.760Z,23.73
2022-12-03T00:49:48.499Z,24.75
2022-12-03T00:50:51.333Z,27.27
2022-12-03T00:51:53.246Z,21.52
2022-12-03T00:52:57.544Z,29.92
2022-12-03T00:53:59.421Z,23.75
2022-12-03T00:55:02.267Z,29.58
2022-12-03T00:56:04.303Z,21.17
2022-12-03T00:57:07.218Z,27.02
2022-12-03T00:58:09.457Z,22.10
2022-12-03T00:59:12.371Z,24.23
2022-12-03T01:00:15.789Z,22.35
2022-12-03T01:01:18.665Z,25.77
2022-12-03T01:02:21.646Z,25.52
2022-12-03T01:03:23.537Z,27.13
2022-12-03T01:04:26.515Z,26.50
2022-12-03T01:05:28.608Z,26.50
2022-12-03T01:06:31.459Z,23.48
2022-12-03T01:07:33.472Z,23.73
2022-12-03T01:08:37.747Z,26.10
2022-12-03T01:09:39.597Z,23.90
2022-12-03T01:10:42.531Z,23.30
2022-12-03T01:11:44.605Z,23.13
2022-12-03T01:12:47.498Z,23.42
2022-12-03T01:13:49.465Z,28.83
2022-12-03T01:14:52.825Z,24.00
2022-12-03T01:15:55.147Z,23.20
2022-12-03T01:16:58.118Z,26.70
2022-12-03T01:17:59.987Z,29.38
2022-12-03T01:19:03.237Z,25.60
2022-12-03T01:20:07.787Z,23.77
2022-12-03T01:21:10.625Z,23.17
2022-12-03T01:22:12.563Z,25.00
2022-12-03T01:23:15.407Z,28.58
2022-12-03T01:24:19.228Z,25.52
2022-12-03T01:25:22.209Z,30.70
2022-12-03T01:26:25.952Z,27.58
2022-12-03T01:27:28.861Z,25.35
2022-12-03T01:28:31.556Z,22.85
2022-12-03T01:29:34.460Z,26.50
2022-12-03T01:30:57.030Z,23.75
2022-12-03T01:32:17.586Z,23.15
2022-12-03T01:33:20.502Z,24.85
2022-12-03T01:34:22.389Z,26.50
2022-12-03T01:35:25.275Z,25.40
2022-12-03T01:36:27.346Z,26.48
2022-12-03T01:37:30.279Z,25.98
2022-12-03T01:38:32.121Z,27.83
2022-12-03T01:39:36.533Z,24.33
2022-12-03T01:40:38.454Z,24.83
2022-12-03T01:41:42.078Z,26.05
2022-12-03T01:42:44.022Z,23.95
2022-12-03T01:43:47.566Z,27.45
2022-12-03T01:44:51.616Z,26.63
2022-12-03T01:45:54.787Z,23.98
2022-12-03T01:46:58.653Z,22.08
2022-12-03T01:48:01.705Z,24.38
2022-12-03T01:49:03.724Z,25.48
2022-12-03T01:50:09.624Z,30.30
2022-12-03T01:51:13.022Z,27.90
2022-12-03T01:52:19.308Z,24.95
2022-12-03T01:53:22.055Z,24.92
2022-12-03T01:54:28.259Z,26.38
2022-12-03T01:55:31.832Z,27.65
2022-12-03T01:56:34.748Z,29.92
2022-12-03T01:57:42.172Z,27.48
2022-12-03T01:58:45.001Z,23.02
2022-12-03T01:59:48.575Z,26.38
2022-12-03T02:00:50.699Z,27.00
2022-12-03T02:01:53.662Z,24.83
2022-12-03T02:02:57.978Z,27.88
2022-12-03T02:04:00.861Z,23.65
2022-12-03T02:05:14.534Z,25.98
2022-12-03T02:06:20.264Z,24.48
2022-12-03T02:07:25.585Z,20.50
2022-12-03T02:08:30.222Z,27.52
2022-12-03T02:09:32.029Z,26.95
2022-12-03T02:10:38.887Z,27.00
2022-12-03T02:11:45.145Z,25.05
2022-12-03T02:12:51.779Z,26.50
2022-12-03T02:13:57.161Z,23.67
2022-12-03T02:15:00.714Z,22.08
2022-12-03T02:16:03.659Z,25.92
2022-12-03T02:17:06.647Z,29.60
2022-12-03T02:18:09.399Z,26.13
2022-12-03T02:19:20.055Z,26.00
2022-12-03T02:20:23.640Z,22.90
2022-12-03T02:21:31.649Z,26.45
2022-12-03T02:22:41.437Z,24.83
2022-12-03T02:23:50.682Z,23.42
2022-12-03T02:24:57.187Z,26.00
2022-12-03T02:26:00.514Z,25.83
2022-12-03T02:27:03.809Z,20.23
2022-12-03T02:28:09.036Z,21.75
2022-12-03T02:29:12.452Z,19.23
2022-12-03T02:30:17.882Z,19.83
2022-12-03T02:31:20.863Z,22.15
2022-12-03T02:32:23.533Z,17.63
2022-12-03T02:33:26.746Z,20.33
2022-12-03T02:34:37.310Z,18.08
2022-12-03T02:35:40.933Z,19.30
2022-12-03T02:36:42.798Z,16.48
2022-12-03T02:37:47.125Z,18.45
2022-12-03T02:38:49.874Z,14.68
2022-12-03T02:39:55.904Z,17.80
2022-12-03T02:41:02.758Z,14.55
2022-12-03T02:42:26.578Z,16.90
2022-12-03T02:43:29.514Z,18.38
2022-12-03T02:44:31.452Z,22.50
2022-12-03T02:45:39.258Z,17.75
2022-12-03T02:46:41.571Z,21.20
2022-12-03T02:47:47.166Z,23.75
2022-12-03T02:48:49.066Z,19.08
2022-12-03T02:49:52.998Z,18.60
2022-12-03T02:50:57.638Z,19.08
2022-12-03T02:52:00.713Z,20.27
2022-12-03T02:53:05.993Z,21.05
2022-12-03T02:54:08.841Z,17.23
2022-12-03T02:55:12.629Z,23.00
2022-12-03T02:56:19.905Z,23.95
2022-12-03T02:57:21.997Z,20.45
2022-12-03T02:58:26.581Z,22.13
2022-12-03T02:59:28.495Z,24.52
2022-12-03T03:00:32.045Z,26.35
2022-12-03T03:01:35.088Z,22.00
2022-12-03T03:02:39.757Z,24.80
2022-12-03T03:03:42.078Z,24.65
2022-12-03T03:04:45.650Z,21.88
2022-12-03T03:05:48.927Z,21.85
2022-12-03T03:06:52.599Z,23.30
2022-12-03T03:07:54.755Z,25.60
2022-12-03T03:08:58.264Z,17.73
2022-12-03T03:10:00.902Z,23.80
2022-12-03T03:11:04.219Z,22.02
2022-12-03T03:12:07.718Z,22.67
2022-12-03T03:13:13.286Z,21.95
2022-12-03T03:14:15.442Z,25.30
2022-12-03T03:15:18.401Z,20.60
2022-12-03T03:16:20.311Z,21.52
2022-12-03T03:17:23.214Z,21.90
2022-12-03T03:18:25.335Z,21.23
2022-12-03T03:19:29.878Z,19.33
2022-12-03T03:20:32.107Z,22.40
2022-12-03T03:21:35.005Z,23.13
2022-12-03T03:22:38.991Z,21.58
2022-12-03T03:23:41.799Z,22.42
2022-12-03T03:24:43.722Z,18.02
2022-12-03T03:25:48.688Z,23.48
2022-12-03T03:26:50.953Z,21.13
2022-12-03T03:27:55.216Z,20.75
2022-12-03T03:29:00.306Z,18.40
2022-12-03T03:30:04.676Z,22.00
2022-12-03T03:31:09.318Z,20.25
2022-12-03T03:32:12.260Z,19.33
2022-12-03T03:33:15.949Z,19.73
2022-12-03T03:34:18.973Z,17.00
2022-12-03T03:35:21.152Z,17.80
2022-12-03T03:36:24.409Z,16.42
2022-12-03T03:37:27.543Z,17.60
2022-12-03T03:38:31.375Z,16.42
2022-12-03T03:39:33.271Z,11.95
2022-12-03T03:40:39.467Z,13.85
2022-12-03T03:41:42.829Z,18.73
2022-12-03T03:42:45.731Z,15.07
2022-12-03T03:43:50.156Z,15.20
2022-12-03T03:44:54.166Z,16.80
2022-12-03T03:45:56.740Z,15.75
2022-12-03T03:46:59.971Z,15.88
2022-12-03T03:48:02.127Z,17.77
2022-12-03T03:49:06.198Z,15.63
2022-12-03T03:50:10.460Z,15.50
2022-12-03T03:51:14.474Z,14.30
2022-12-03T03:52:17.274Z,14.93
2022-12-03T03:53:21.142Z,20.55
2022-12-03T03:54:23.721Z,19.10
2022-12-03T03:55:26.869Z,15.25
2022-12-03T03:56:28.843Z,12.75
2022-12-03T03:57:31.737Z,15.30
2022-12-03T03:58:33.826Z,13.75
2022-12-03T03:59:38.113Z,14.90
2022-12-03T04:00:42.024Z,12.77
2022-12-03T04:01:46.039Z,13.65
2022-12-03T04:02:47.976Z,15.80
2022-12-03T04:03:50.910Z,17.25
2022-12-03T04:04:53.533Z,13.65
2022-12-03T04:05:56.820Z,16.48
2022-12-03T04:06:59.581Z,14.38
2022-12-03T04:08:02.441Z,15.20
2022-12-03T04:09:04.374Z,16.77
2022-12-03T04:10:36.719Z,16.15
2022-12-03T04:11:57.286Z,13.07
2022-12-03T04:12:59.852Z,13.68
2022-12-03T04:14:02.391Z,11.85
2022-12-03T04:15:08.170Z,15.18
2022-12-03T04:16:10.160Z,17.00
2022-12-03T04:17:13.104Z,15.90
2022-12-03T04:18:33.518Z,13.60
2022-12-03T04:19:36.443Z,9.68
2022-12-03T04:20:38.602Z,11.98
2022-12-03T04:21:58.882Z,14.43
2022-12-03T04:23:00.729Z,9.88
2022-12-03T04:24:04.162Z,14.35
2022-12-03T04:25:21.932Z,15.93
2022-12-03T04:26:46.879Z,10.93
2022-12-03T04:28:11.272Z,15.63
2022-12-03T04:29:14.540Z,14.30
2022-12-03T04:30:18.193Z,15.95
2022-12-03T04:31:38.782Z,14.50
2022-12-03T04:32:59.144Z,12.80
2022-12-03T04:34:19.484Z,13.52
2022-12-03T04:35:39.820Z,13.50
2022-12-03T04:36:45.107Z,15.63
2022-12-03T04:37:47.978Z,11.80
2022-12-03T04:38:49.886Z,12.80
2022-12-03T04:39:52.886Z,14.70
2022-12-03T04:41:00.815Z,16.38
2022-12-03T04:42:03.801Z,13.77
2022-12-03T04:43:05.858Z,15.93
2022-12-03T04:44:26.368Z,13.23
2022-12-03T04:45:30.603Z,11.60
2022-12-03T04:46:32.724Z,14.35
2022-12-03T04:47:39.907Z,15.50
2022-12-03T04:48:41.973Z,13.80
2022-12-03T04:49:47.309Z,12.50
2022-12-03T04:50:49.440Z,14.02
2022-12-03T04:51:52.327Z,15.75
2022-12-03T04:52:54.134Z,14.13
2022-12-03T04:53:57.019Z,14.00
2022-12-03T04:54:59.853Z,12.55
2022-12-03T04:56:01.695Z,14.30
2022-12-03T04:57:05.186Z,11.63
2022-12-03T04:58:07.208Z,12.57
2022-12-03T04:59:15.616Z,12.15
2022-12-03T05:00:18.367Z,9.50
2022-12-03T05:01:22.797Z,12.25
2022-12-03T05:02:25.763Z,12.18
2022-12-03T05:03:27.716Z,15.13
2022-12-03T05:04:30.632Z,15.20
2022-12-03T05:05:32.452Z,13.93
2022-12-03T05:06:35.365Z,12.43
2022-12-03T05:07:38.459Z,13.35
2022-12-03T05:08:40.380Z,10.60
2022-12-03T05:09:43.216Z,11.88
2022-12-03T05:10:45.058Z,11.13
2022-12-03T05:11:48.221Z,13.55
2022-12-03T05:12:50.107Z,14.77
2022-12-03T05:13:53.771Z,13.70
2022-12-03T05:14:56.006Z,15.48
2022-12-03T05:15:59.201Z,11.43
2022-12-03T05:17:02.508Z,11.63
2022-12-03T05:18:05.718Z,11.15
2022-12-03T05:19:08.662Z,11.32
2022-12-03T05:20:30.246Z,15.93
2022-12-03T05:21:33.243Z,12.43
2022-12-03T05:22:35.128Z,11.70
2022-12-03T05:23:37.989Z,13.75
2022-12-03T05:24:39.959Z,14.98
2022-12-03T05:25:42.981Z,12.05
2022-12-03T05:26:45.819Z,9.50
2022-12-03T05:27:47.658Z,12.90
2022-12-03T05:28:50.603Z,11.80
2022-12-03T05:29:53.008Z,11.73
2022-12-03T05:30:56.024Z,13.07
2022-12-03T05:31:57.877Z,11.13
2022-12-03T05:33:02.039Z,12.77
2022-12-03T05:34:03.905Z,13.63
2022-12-03T05:35:07.495Z,13.25
2022-12-03T05:36:10.238Z,14.27
2022-12-03T05:37:13.127Z,11.25
2022-12-03T05:38:15.280Z,13.75
2022-12-03T05:39:18.117Z,11.32
2022-12-03T05:40:21.021Z,15.02
2022-12-03T05:41:41.587Z,9.77
2022-12-03T05:42:57.023Z,13.05
2022-12-03T05:43:58.974Z,11.63
2022-12-03T05:45:00.831Z,13.45
2022-12-03T05:46:03.724Z,12.88
2022-12-03T05:47:05.650Z,14.15
2022-12-03T05:48:11.843Z,11.80
2022-12-03T05:49:13.700Z,11.32
2022-12-03T05:50:16.958Z,10.90
2022-12-03T05:51:19.868Z,13.82
2022-12-03T05:52:21.736Z,11.48
2022-12-03T05:53:24.606Z,12.15
2022-12-03T05:54:26.486Z,10.15
2022-12-03T05:55:29.806Z,11.10
2022-12-03T05:56:32.915Z,11.68
2022-12-03T05:57:35.773Z,12.25
2022-12-03T05:58:37.602Z,14.70
2022-12-03T05:59:40.500Z,14.43
2022-12-03T06:00:43.138Z,10.02
2022-12-03T06:01:46.115Z,13.25
2022-12-03T06:02:48.256Z,15.85
2022-12-03T06:03:52.880Z,9.45
2022-12-03T06:04:55.336Z,11.65
2022-12-03T06:05:58.473Z,10.65
2022-12-03T06:07:01.425Z,13.02
2022-12-03T06:08:04.617Z,10.75
2022-12-03T06:09:06.895Z,11.57
2022-12-03T06:10:12.208Z,13.98
2022-12-03T06:11:14.079Z,13.40
2022-12-03T06:12:17.115Z,10.90
2022-12-03T06:13:18.989Z,8.65
2022-12-03T06:14:22.379Z,10.35
2022-12-03T06:15:24.645Z,7.80
2022-12-03T06:16:27.866Z,11.98
2022-12-03T06:17:31.170Z,10.43
2022-12-03T06:18:34.224Z,11.80
2022-12-03T06:19:37.412Z,12.60
2022-12-03T06:20:40.470Z,10.95
2022-12-03T06:21:42.317Z,10.57
2022-12-03T06:22:45.221Z,10.75
2022-12-03T06:23:47.068Z,12.43
2022-12-03T06:24:50.199Z,11.35
2022-12-03T06:25:53.118Z,13.68
2022-12-03T06:26:55.003Z,11.63
2022-12-03T06:28:12.953Z,11.05
2022-12-03T06:29:14.858Z,10.73
2022-12-03T06:30:17.993Z,12.00
2022-12-03T06:31:19.880Z,13.48
2022-12-03T06:32:22.890Z,9.65
2022-12-03T06:33:24.763Z,12.80
2022-12-03T06:34:27.827Z,12.95
2022-12-03T06:35:31.116Z,11.10
2022-12-03T06:36:34.026Z,11.50
2022-12-03T06:37:35.909Z,12.32
2022-12-03T06:38:38.803Z,8.90
2022-12-03T06:39:40.953Z,9.82
2022-12-03T06:40:43.718Z,13.50
2022-12-03T06:41:45.623Z,11.02
2022-12-03T06:42:49.017Z,12.02
2022-12-03T06:43:50.857Z,11.55
2022-12-03T06:44:54.000Z,10.57
2022-12-03T06:45:56.086Z,9.80
2022-12-03T06:47:00.451Z,11.60
2022-12-03T06:48:02.333Z,12.02
2022-12-03T06:49:05.293Z,10.73
2022-12-03T06:50:08.675Z,13.65
2022-12-03T06:51:12.830Z,10.77
2022-12-03T06:52:14.781Z,13.95
2022-12-03T06:53:17.773Z,11.25
2022-12-03T06:54:19.593Z,11.70
2022-12-03T06:55:22.412Z,10.52
2022-12-03T06:56:25.764Z,13.30
2022-12-03T06:57:30.250Z,13.93
2022-12-03T06:58:32.212Z,11.70
2022-12-03T06:59:37.439Z,9.35
2022-12-03T07:00:39.343Z,14.65
2022-12-03T07:01:42.292Z,11.80
2022-12-03T07:02:45.437Z,10.52
2022-12-03T07:03:48.554Z,14.98
2022-12-03T07:04:51.576Z,13.35
2022-12-03T07:05:53.424Z,11.13
2022-12-03T07:06:57.607Z,11.43
2022-12-03T07:07:59.684Z,12.05
2022-12-03T07:09:02.579Z,11.52
2022-12-03T07:10:06.458Z,10.13
2022-12-03T07:11:29.068Z,9.85
2022-12-03T07:12:32.728Z,11.55
2022-12-03T07:13:34.732Z,10.93
2022-12-03T07:14:37.635Z,11.73
2022-12-03T07:15:39.470Z,13.02
2022-12-03T07:16:43.428Z,10.25
2022-12-03T07:17:45.483Z,13.27
2022-12-03T07:18:48.362Z,9.57
2022-12-03T07:19:51.481Z,13.30
2022-12-03T07:20:53.380Z,12.80
2022-12-03T07:21:57.680Z,12.48
2022-12-03T07:22:59.545Z,11.13
2022-12-03T07:24:02.419Z,14.48
2022-12-03T07:25:04.808Z,9.82
2022-12-03T07:26:07.759Z,9.05
2022-12-03T07:27:09.650Z,14.85
2022-12-03T07:28:12.543Z,12.75
2022-12-03T07:29:15.422Z,14.10
2022-12-03T07:30:17.675Z,11.93
2022-12-03T07:31:20.621Z,12.55
2022-12-03T07:32:23.566Z,9.77
2022-12-03T07:33:25.410Z,14.10
2022-12-03T07:34:28.545Z,12.27
2022-12-03T07:35:30.344Z,11.63
2022-12-03T07:36:33.287Z,12.52
2022-12-03T07:37:37.866Z,12.13
2022-12-03T07:38:39.732Z,14.77
2022-12-03T07:39:42.612Z,14.02
2022-12-03T07:40:45.109Z,12.48
2022-12-03T07:41:47.909Z,14.18
2022-12-03T07:42:49.728Z,12.75
2022-12-03T07:43:52.547Z,13.07
2022-12-03T07:44:54.785Z,12.60
2022-12-03T07:45:58.541Z,14.07
2022-12-03T07:47:01.574Z,14.02
2022-12-03T07:48:03.725Z,15.35
2022-12-03T07:49:06.711Z,13.20
2022-12-03T07:50:09.790Z,14.73
2022-12-03T07:51:15.151Z,14.40
2022-12-03T07:52:17.573Z,11.80
2022-12-03T07:53:22.193Z,15.75
2022-12-03T07:54:26.028Z,13.40
2022-12-03T07:55:27.956Z,13.13
2022-12-03T07:56:31.094Z,12.48
2022-12-03T07:57:32.936Z,11.38
2022-12-03T07:58:35.789Z,13.35
2022-12-03T07:59:37.662Z,12.95
2022-12-03T08:00:40.592Z,15.77
2022-12-03T08:01:42.562Z,13.07
2022-12-03T08:02:45.536Z,14.68
2022-12-03T08:03:47.455Z,13.43
2022-12-03T08:04:50.650Z,13.40
2022-12-03T08:05:52.759Z,11.07
2022-12-03T08:06:55.726Z,10.80
2022-12-03T08:07:57.685Z,13.48
2022-12-03T08:09:01.912Z,19.33
2022-12-03T08:10:04.494Z,13.25
2022-12-03T08:11:07.742Z,13.27
2022-12-03T08:12:17.809Z,12.65
2022-12-03T08:13:20.792Z,10.90
2022-12-03T08:14:24.605Z,17.00
2022-12-03T08:15:35.252Z,17.10
2022-12-03T08:16:44.163Z,17.40
2022-12-03T08:17:48.622Z,13.18
2022-12-03T08:18:53.243Z,14.77
2022-12-03T08:19:55.054Z,18.65
2022-12-03T08:20:58.428Z,15.00
2022-12-03T08:22:01.545Z,12.07
2022-12-03T08:23:11.101Z,14.10
2022-12-03T08:24:18.052Z,17.45
2022-12-03T08:25:23.070Z,17.73
2022-12-03T08:26:29.160Z,13.20
2022-12-03T08:27:31.083Z,12.98
2022-12-03T08:28:33.991Z,15.43
2022-12-03T08:29:35.856Z,14.23
2022-12-03T08:30:38.931Z,14.38
2022-12-03T08:31:42.545Z,13.05
2022-12-03T08:32:45.068Z,17.00
2022-12-03T08:33:49.999Z,12.27
2022-12-03T08:34:53.168Z,12.80
2022-12-03T08:35:56.562Z,16.35
2022-12-03T08:37:02.185Z,10.70
2022-12-03T08:38:11.258Z,15.63
2022-12-03T08:39:28.990Z,16.85
2022-12-03T08:40:36.236Z,12.07
2022-12-03T08:41:57.765Z,19.23
2022-12-03T08:43:00.648Z,15.43
2022-12-03T08:44:20.527Z,18.98
2022-12-03T08:45:41.418Z,15.73
2022-12-03T08:46:44.432Z,14.50
2022-12-03T08:47:46.529Z,12.05
2022-12-03T08:48:49.781Z,14.27
2022-12-03T08:49:56.056Z,14.35
2022-12-03T08:51:01.616Z,14.18
2022-12-03T08:52:14.260Z,13.45
2022-12-03T08:53:27.826Z,11.23
2022-12-03T08:54:32.466Z,14.70
2022-12-03T08:55:36.593Z,12.20
2022-12-03T08:56:40.134Z,14.23
2022-12-03T08:57:43.428Z,14.55
2022-12-03T08:58:48.850Z,14.98
2022-12-03T08:59:53.516Z,11.13
2022-12-03T09:00:59.313Z,11.55
2022-12-03T09:02:02.268Z,17.30
2022-12-03T09:03:10.877Z,14.05
2022-12-03T09:04:22.734Z,15.70
2022-12-03T09:05:30.315Z,12.25
2022-12-03T09:06:32.290Z,13.40
2022-12-03T09:07:35.268Z,16.08
2022-12-03T09:08:37.498Z,13.90
2022-12-03T09:09:42.315Z,16.13
2022-12-03T09:10:44.153Z,15.45
2022-12-03T09:11:47.637Z,12.68
2022-12-03T09:12:50.685Z,17.35
2022-12-03T09:13:52.591Z,13.63
2022-12-03T09:14:55.801Z,16.13
2022-12-03T09:15:57.916Z,13.85
2022-12-03T09:17:02.286Z,14.48
2022-12-03T09:18:04.561Z,13.77
2022-12-03T09:19:07.546Z,14.63
2022-12-03T09:20:10.159Z,15.13
2022-12-03T09:21:13.050Z,11.55
2022-12-03T09:22:17.265Z,15.00
2022-12-03T09:23:20.320Z,21.00
2022-12-03T09:24:22.200Z,12.40
2022-12-03T09:25:26.402Z,12.05
2022-12-03T09:26:28.391Z,12.63
2022-12-03T09:27:31.520Z,13.07
2022-12-03T09:28:33.461Z,11.38
2022-12-03T09:29:36.408Z,11.10
2022-12-03T09:30:38.891Z,11.07
2022-12-03T09:31:42.014Z,12.00
2022-12-03T09:32:45.774Z,19.90
2022-12-03T09:33:48.742Z,13.85
2022-12-03T09:34:51.952Z,13.70
2022-12-03T09:35:53.988Z,11.35
2022-12-03T09:36:56.901Z,12.80
2022-12-03T09:37:58.899Z,13.63
2022-12-03T09:39:03.843Z,16.42
2022-12-03T09:40:08.377Z,14.48
2022-12-03T09:41:11.802Z,12.55
2022-12-03T09:42:15.710Z,12.70
2022-12-03T09:43:18.729Z,15.13
2022-12-03T09:44:21.717Z,12.55
2022-12-03T09:45:23.615Z,15.15
2022-12-03T09:46:26.642Z,13.27
2022-12-03T09:47:30.856Z,12.65
2022-12-03T09:48:32.844Z,12.90
2022-12-03T09:49:39.494Z,17.35
2022-12-03T09:50:43.591Z,16.17
2022-12-03T09:51:46.204Z,12.75
2022-12-03T09:52:51.099Z,15.23
2022-12-03T09:53:53.512Z,16.15
2022-12-03T09:55:06.607Z,17.55
2022-12-03T09:56:18.168Z,17.27
2022-12-03T09:57:21.222Z,12.65
2022-12-03T09:58:23.465Z,12.35
2022-12-03T09:59:31.534Z,15.38
2022-12-03T10:00:33.377Z,11.55
2022-12-03T10:01:36.866Z,18.20
2022-12-03T10:02:38.844Z,13.85
2022-12-03T10:03:47.217Z,19.58
2022-12-03T10:04:49.696Z,15.27
2022-12-03T10:05:52.832Z,15.52
2022-12-03T10:06:57.399Z,12.77
2022-12-03T10:08:04.656Z,11.95
2022-12-03T10:09:12.555Z,15.55
2022-12-03T10:10:18.000Z,13.20
2022-12-03T10:11:25.231Z,13.88
2022-12-03T10:12:28.139Z,13.13
2022-12-03T10:13:34.585Z,15.32
2022-12-03T10:14:37.491Z,10.93
2022-12-03T10:15:39.469Z,14.27
2022-12-03T10:16:43.054Z,17.30
2022-12-03T10:17:47.665Z,13.13
2022-12-03T10:18:54.833Z,11.90
2022-12-03T10:19:57.809Z,15.27
2022-12-03T10:20:59.925Z,12.60
2022-12-03T10:22:02.903Z,14.13
2022-12-03T10:23:05.832Z,11.45
2022-12-03T10:24:28.550Z,12.48
2022-12-03T10:25:31.463Z,12.07
2022-12-03T10:26:40.648Z,15.32
2022-12-03T10:27:44.134Z,14.10
2022-12-03T10:28:47.614Z,14.65
2022-12-03T10:29:57.044Z,12.40
2022-12-03T10:31:00.916Z,19.58
2022-12-03T10:32:06.178Z,15.50
2022-12-03T10:33:18.491Z,21.65
2022-12-03T10:34:26.002Z,14.35
2022-12-03T10:35:41.100Z,17.75
2022-12-03T10:36:43.998Z,13.90
2022-12-03T10:37:59.120Z,16.33
2022-12-03T10:39:12.291Z,13.52
2022-12-03T10:40:15.356Z,12.57
2022-12-03T10:41:22.646Z,15.88
2022-12-03T10:42:28.555Z,10.15
2022-12-03T10:43:31.467Z,16.67
2022-12-03T10:44:35.226Z,14.45
2022-12-03T10:45:38.103Z,12.80
2022-12-03T10:46:40.228Z,16.08
2022-12-03T10:47:43.965Z,15.55
2022-12-03T10:48:46.246Z,17.58
2022-12-03T10:50:03.183Z,15.85
2022-12-03T10:51:08.069Z,13.73
2022-12-03T10:52:25.645Z,13.65
2022-12-03T10:53:30.418Z,11.90
2022-12-03T10:54:36.016Z,12.30
2022-12-03T10:55:41.087Z,13.90
2022-12-03T10:56:44.762Z,10.35
2022-12-03T10:57:49.114Z,12.75
2022-12-03T10:58:51.533Z,13.55
2022-12-03T10:59:54.450Z,11.50
2022-12-03T11:00:59.124Z,12.88
2022-12-03T11:02:03.789Z,13.25
2022-12-03T11:03:18.360Z,16.00
2022-12-03T11:04:22.727Z,13.00
2022-12-03T11:05:28.416Z,15.73
2022-12-03T11:06:33.127Z,12.40
2022-12-03T11:07:38.927Z,13.20
2022-12-03T11:08:44.966Z,14.68
2022-12-03T11:09:49.391Z,15.73
2022-12-03T11:10:59.933Z,17.35
2022-12-03T11:12:06.178Z,13.20
2022-12-03T11:13:45.256Z,15.80
2022-12-03T11:15:08.051Z,9.93
2022-12-03T11:16:10.249Z,11.90
2022-12-03T11:17:13.160Z,13.07
2022-12-03T11:19:01.233Z,13.27
2022-12-03T11:20:05.381Z,14.70
2022-12-03T11:21:09.782Z,13.40
2022-12-03T11:22:34.690Z,12.43
2022-12-03T11:24:02.720Z,13.82
2022-12-03T11:25:47.757Z,16.73
2022-12-03T11:27:23.990Z,13.75
2022-12-03T11:28:53.074Z,11.77
2022-12-03T11:30:05.118Z,17.00
2022-12-03T11:31:15.064Z,12.48
2022-12-03T11:33:07.273Z,12.98
2022-12-03T11:34:49.775Z,11.98
2022-12-03T11:36:12.277Z,12.23
2022-12-03T11:37:25.676Z,10.27
2022-12-03T11:38:42.635Z,13.13
2022-12-03T11:40:30.045Z,13.60
2022-12-03T11:41:36.391Z,10.45
2022-12-03T11:42:40.060Z,12.05
2022-12-03T11:44:19.066Z,12.15
2022-12-03T11:45:30.629Z,10.43
2022-12-03T11:46:43.365Z,12.88
2022-12-03T11:47:47.825Z,12.55
2022-12-03T11:48:54.327Z,14.82
2022-12-03T11:49:57.400Z,12.10
2022-12-03T11:50:59.276Z,13.85
2022-12-03T11:52:05.424Z,16.80
2022-12-03T11:53:17.342Z,11.15
2022-12-03T11:54:23.329Z,15.70
2022-12-03T11:55:30.540Z,11.73
2022-12-03T11:56:32.508Z,12.80
2022-12-03T11:57:38.042Z,10.98
2022-12-03T11:58:45.268Z,11.88
2022-12-03T11:59:59.314Z,12.63
2022-12-03T12:01:04.111Z,13.88
2022-12-03T12:02:20.141Z,12.50
2022-12-03T12:03:25.620Z,14.73
2022-12-03T12:04:31.310Z,13.93
2022-12-03T12:05:35.534Z,13.40
2022-12-03T12:06:42.480Z,14.18
2022-12-03T12:07:48.044Z,15.25
2022-12-03T12:08:58.583Z,20.00
2022-12-03T12:10:00.526Z,12.20
2022-12-03T12:11:03.843Z,15.20
2022-12-03T12:12:18.672Z,11.18
2022-12-03T12:13:49.925Z,16.77
2022-12-03T12:14:53.026Z,16.75
2022-12-03T12:15:56.970Z,12.80
2022-12-03T12:17:03.234Z,13.57
2022-12-03T12:18:37.093Z,13.60
2022-12-03T12:19:42.194Z,18.83
2022-12-03T12:20:44.145Z,13.50
2022-12-03T12:21:48.555Z,16.42
2022-12-03T12:22:51.729Z,17.10
2022-12-03T12:23:53.555Z,17.42
2022-12-03T12:24:57.735Z,18.40
2022-12-03T12:26:06.421Z,14.10
2022-12-03T12:27:11.308Z,17.70
2022-12-03T12:28:14.178Z,15.77
2022-12-03T12:29:16.164Z,16.27
2022-12-03T12:30:21.612Z,20.88
2022-12-03T12:31:25.936Z,16.38
2022-12-03T12:32:32.969Z,17.80
2022-12-03T12:33:35.447Z,20.05
2022-12-03T12:34:38.916Z,17.45
2022-12-03T12:35:42.396Z,19.15
2022-12-03T12:36:44.285Z,16.20
2022-12-03T12:37:59.173Z,17.75
2022-12-03T12:39:01.735Z,16.92
2022-12-03T12:40:13.496Z,14.73
2022-12-03T12:41:16.451Z,19.17
2022-12-03T12:42:30.095Z,14.40
2022-12-03T12:43:34.888Z,20.25
2022-12-03T12:44:36.790Z,15.07
2022-12-03T12:45:42.363Z,22.67
2022-12-03T12:46:48.331Z,19.85
2022-12-03T12:48:03.143Z,14.93
2022-12-03T12:49:11.889Z,18.02
2022-12-03T12:50:14.524Z,16.38
2022-12-03T12:51:19.559Z,22.13
2022-12-03T12:52:21.447Z,17.40
2022-12-03T12:53:27.199Z,16.60
2022-12-03T12:54:29.128Z,16.02
2022-12-03T12:55:32.028Z,16.40
2022-12-03T12:56:33.914Z,19.65
2022-12-03T12:57:36.771Z,18.85
2022-12-03T12:58:39.627Z,16.23
2022-12-03T12:59:41.666Z,18.77
2022-12-03T13:00:47.458Z,18.58
2022-12-03T13:01:51.921Z,20.23
2022-12-03T13:02:58.653Z,17.67
2022-12-03T13:04:02.912Z,19.55
2022-12-03T13:05:05.385Z,15.50
2022-12-03T13:06:15.765Z,14.65
2022-12-03T13:07:17.810Z,17.85
2022-12-03T13:08:27.415Z,17.92
2022-12-03T13:09:30.035Z,19.45
2022-12-03T13:10:37.803Z,19.83
2022-12-03T13:11:42.290Z,20.27
2022-12-03T13:12:45.594Z,15.82
2022-12-03T13:13:48.545Z,18.42
2022-12-03T13:14:52.214Z,21.25
2022-12-03T13:16:04.351Z,17.50
2022-12-03T13:17:15.618Z,17.02
2022-12-03T13:18:25.757Z,18.08
2022-12-03T13:19:30.163Z,20.00
2022-12-03T13:20:32.036Z,20.42
2022-12-03T13:21:38.881Z,15.45
2022-12-03T13:22:41.790Z,18.48
2022-12-03T13:23:44.804Z,21.60
2022-12-03T13:24:50.655Z,17.40
2022-12-03T13:26:09.305Z,19.58
2022-12-03T13:27:25.696Z,19.13
2022-12-03T13:28:31.147Z,18.05
2022-12-03T13:29:34.068Z,19.58
2022-12-03T13:30:38.690Z,20.45
2022-12-03T13:31:44.350Z,16.55
2022-12-03T13:32:49.147Z,19.42
2022-12-03T13:33:52.491Z,15.60
2022-12-03T13:35:00.862Z,17.25
2022-12-03T13:36:02.682Z,14.52
2022-12-03T13:37:14.939Z,16.05
2022-12-03T13:38:17.314Z,16.33
2022-12-03T13:39:22.829Z,15.38
2022-12-03T13:40:30.510Z,14.38
2022-12-03T13:41:52.214Z,22.02
2022-12-03T13:42:55.628Z,17.40
2022-12-03T13:43:58.599Z,19.73
2022-12-03T13:45:03.748Z,16.02
2022-12-03T13:46:06.053Z,20.30
2022-12-03T13:47:16.001Z,20.95
2022-12-03T13:48:23.770Z,15.45
2022-12-03T13:49:26.678Z,16.67
2022-12-03T13:50:33.845Z,17.05
2022-12-03T13:51:36.878Z,17.08
2022-12-03T13:52:39.820Z,15.63
2022-12-03T13:53:41.780Z,18.50
2022-12-03T13:54:44.904Z,15.82
2022-12-03T13:55:48.828Z,14.15
2022-12-03T13:56:52.353Z,21.73
2022-12-03T13:57:54.657Z,22.70
2022-12-03T13:59:00.167Z,19.77
2022-12-03T14:00:02.063Z,17.48
2022-12-03T14:01:15.365Z,15.70